Time;durP1;ratioP1;P1;durP2;ratioP2;P2;SDS_P1;SDS_P2;PMS_P1;PMS_P2;Temp;Humidity;BMP_temperature;BMP_pressure;BME280_temperature;BME280_humidity;BME280_pressure;Samples;Min_cycle;Max_cycle;Signal;HPM_P1;HPM_P2
2022/01/15 00:01:43;;;;;;;6.85;4.30;;;5.70;99.90;;;;;;4975132;28;20034;-73
2022/01/15 00:04:09;;;;;;;7.75;3.65;;;5.70;99.90;;;;;;4983567;28;20034;-74
2022/01/15 00:06:35;;;;;;;5.68;3.60;;;5.70;99.90;;;;;;4969788;28;20037;-73
2022/01/15 00:09:04;;;;;;;7.23;4.40;;;5.60;99.90;;;;;;4973437;28;20022;-73
2022/01/15 00:11:31;;;;;;;6.57;3.83;;;5.70;99.90;;;;;;4972726;28;20026;-72
2022/01/15 00:14:12;;;;;;;7.82;4.03;;;5.70;99.90;;;;;;4970095;28;20026;-73
2022/01/15 00:16:46;;;;;;;5.50;3.28;;;5.70;99.90;;;;;;4971192;28;20030;-73
2022/01/15 00:19:15;;;;;;;6.57;3.20;;;5.60;99.90;;;;;;4966873;28;20026;-73
2022/01/15 00:21:42;;;;;;;7.05;3.75;;;5.60;99.90;;;;;;4966855;28;20026;-72
2022/01/15 00:24:07;;;;;;;5.97;3.30;;;5.70;99.90;;;;;;4966606;28;20022;-73
2022/01/15 00:26:34;;;;;;;9.83;4.20;;;5.70;99.90;;;;;;4973272;28;20383;-72
2022/01/15 00:29:01;;;;;;;5.20;3.22;;;5.70;99.90;;;;;;4969042;28;20022;-73
2022/01/15 00:31:27;;;;;;;6.00;3.40;;;5.60;99.80;;;;;;4972822;28;20026;-72
2022/01/15 00:33:54;;;;;;;5.80;3.37;;;5.70;99.40;;;;;;4970678;28;20417;-72
2022/01/15 00:36:20;;;;;;;5.93;3.30;;;5.70;99.20;;;;;;4970756;28;20266;-72
2022/01/15 00:38:49;;;;;;;4.97;3.30;;;5.70;98.90;;;;;;4975006;28;20046;-71
2022/01/15 00:41:17;;;;;;;6.85;3.58;;;5.70;99.10;;;;;;4970075;28;20225;-72
2022/01/15 00:43:43;;;;;;;7.45;3.90;;;5.70;99.10;;;;;;4975750;28;20037;-71
2022/01/15 00:46:09;;;;;;;6.13;3.83;;;5.60;99.30;;;;;;4968688;28;20026;-71
2022/01/15 00:48:35;;;;;;;6.90;3.27;;;5.60;99.00;;;;;;4970639;28;20026;-72
2022/01/15 00:51:00;;;;;;;6.93;3.83;;;5.60;99.00;;;;;;4962319;28;20476;-74
2022/01/15 00:53:26;;;;;;;6.47;3.40;;;5.60;98.30;;;;;;4964461;28;20070;-72
2022/01/15 00:55:52;;;;;;;5.27;3.70;;;5.60;98.90;;;;;;4973079;28;20034;-72
2022/01/15 00:58:17;;;;;;;7.57;4.30;;;5.60;99.60;;;;;;4970041;28;20034;-71
2022/01/15 01:00:45;;;;;;;8.73;4.17;;;5.50;99.90;;;;;;4966778;28;20035;-73
2022/01/15 01:03:10;;;;;;;8.18;4.10;;;5.60;99.70;;;;;;4961511;28;20023;-72
2022/01/15 01:05:36;;;;;;;6.27;3.47;;;5.50;99.50;;;;;;4970900;28;20028;-72
2022/01/15 01:08:02;;;;;;;7.43;3.93;;;5.50;99.50;;;;;;4969711;28;20101;-73
2022/01/15 01:23:42;;;;;;;6.30;3.88;;;5.50;99.90;;;;;;4975639;28;20037;-79
2022/01/15 01:26:24;;;;;;;6.93;3.90;;;5.50;99.90;;;;;;4964355;28;20022;-73
2022/01/15 01:29:03;;;;;;;9.73;4.13;;;5.50;99.90;;;;;;4970037;28;20455;-73
2022/01/15 01:31:52;;;;;;;7.13;3.97;;;5.40;99.90;;;;;;4968060;28;20015;-76
2022/01/15 01:34:17;;;;;;;;;;;5.50;99.90;;;;;;4969211;28;20018;-76
2022/01/15 01:39:19;;;;;;;9.40;4.40;;;5.40;99.90;;;;;;4968435;28;20033;-74
2022/01/15 01:42:39;;;;;;;9.35;4.35;;;5.40;99.90;;;;;;4967018;28;20408;-75
2022/01/15 01:44:40;;;;;;;9.18;4.30;;;5.40;99.90;;;;;;4963588;28;20444;-73
2022/01/15 01:47:15;;;;;;;8.20;4.38;;;5.40;99.90;;;;;;4966255;28;20026;-76
2022/01/15 01:49:42;;;;;;;7.88;4.10;;;5.40;99.90;;;;;;4971726;28;20026;-72
2022/01/15 01:52:09;;;;;;;6.63;4.13;;;5.40;99.90;;;;;;4968540;28;20094;-72
2022/01/15 01:54:35;;;;;;;7.35;4.20;;;5.40;99.90;;;;;;4970782;28;20146;-73
2022/01/15 01:57:01;;;;;;;7.60;3.60;;;5.30;99.90;;;;;;4965386;28;20113;-73
2022/01/15 01:59:27;;;;;;;6.00;3.65;;;5.30;99.90;;;;;;4975383;28;20038;-72
2022/01/15 02:01:53;;;;;;;6.37;3.50;;;5.30;99.90;;;;;;4969601;28;20030;-72
2022/01/15 02:04:20;;;;;;;6.07;3.40;;;5.30;99.90;;;;;;4961186;28;20067;-76
2022/01/15 02:06:46;;;;;;;9.85;4.18;;;5.20;99.90;;;;;;4966019;28;20408;-72
2022/01/15 02:09:12;;;;;;;6.17;3.50;;;5.20;99.90;;;;;;4973222;28;20108;-72
2022/01/15 02:11:39;;;;;;;6.32;3.83;;;5.20;99.90;;;;;;4974276;28;20536;-75
2022/01/15 02:14:06;;;;;;;7.15;3.60;;;5.30;99.90;;;;;;4965935;28;20030;-75
2022/01/15 02:16:32;;;;;;;;;;;5.30;99.90;;;;;;4968422;28;20029;-73
2022/01/15 02:18:57;;;;;;;6.80;3.35;;;5.30;99.90;;;;;;4962752;28;19914;-73
2022/01/15 02:24:09;;;;;;;7.55;4.05;;;5.30;99.90;;;;;;4964787;28;20506;-79
2022/01/15 02:26:38;;;;;;;6.47;3.60;;;5.20;99.90;;;;;;4970635;28;20035;-72
2022/01/15 02:29:07;;;;;;;5.65;3.60;;;5.20;99.90;;;;;;4961087;28;20066;-72
2022/01/15 02:31:34;;;;;;;8.07;4.15;;;5.30;99.90;;;;;;4970059;28;20764;-75
2022/01/15 02:34:02;;;;;;;4.93;3.53;;;5.20;99.90;;;;;;4968218;28;20025;-73
2022/01/15 02:36:31;;;;;;;6.65;4.25;;;5.30;99.90;;;;;;4973135;28;20088;-72
2022/01/15 02:38:57;;;;;;;6.07;3.70;;;5.20;99.90;;;;;;4965547;28;20358;-72
2022/01/15 02:41:39;;;;;;;7.22;3.83;;;5.10;99.90;;;;;;4966580;28;20494;-73
2022/01/15 02:44:15;;;;;;;5.85;3.55;;;5.30;99.90;;;;;;4963168;28;20038;-72
2022/01/15 02:49:17;;;;;;;6.13;3.72;;;5.30;99.90;;;;;;4967677;28;20768;-76
2022/01/15 02:51:42;;;;;;;7.57;4.32;;;5.30;99.90;;;;;;4971917;28;20035;-73
2022/01/15 02:54:09;;;;;;;9.67;4.60;;;5.30;99.90;;;;;;4966059;28;20034;-72
2022/01/15 02:56:37;;;;;;;6.85;4.07;;;5.30;99.90;;;;;;4969055;28;20072;-72
2022/01/15 02:59:06;;;;;;;8.88;4.20;;;5.30;99.90;;;;;;4968253;28;20038;-73
2022/01/15 03:01:33;;;;;;;6.38;3.67;;;5.20;99.80;;;;;;4970843;28;20033;-72
2022/01/15 03:03:59;;;;;;;8.77;4.07;;;5.20;99.10;;;;;;4965950;28;20023;-73
2022/01/15 03:06:25;;;;;;;7.15;3.70;;;5.30;99.10;;;;;;4990048;28;20080;-72
2022/01/15 03:08:54;;;;;;;6.10;3.70;;;5.30;98.90;;;;;;4971015;28;20022;-72
2022/01/15 03:11:21;;;;;;;7.60;3.97;;;5.30;99.10;;;;;;4969058;28;20053;-72
2022/01/15 03:13:47;;;;;;;6.97;3.67;;;5.30;98.60;;;;;;4970673;28;20561;-73
2022/01/15 03:16:15;;;;;;;8.55;3.88;;;5.30;98.80;;;;;;4963173;28;20058;-75
2022/01/15 03:18:42;;;;;;;7.10;3.65;;;5.30;98.60;;;;;;4970414;28;20465;-72
2022/01/15 03:21:08;;;;;;;6.90;4.15;;;5.30;98.50;;;;;;4966386;28;20053;-73
2022/01/15 03:23:34;;;;;;;8.52;4.45;;;5.30;98.50;;;;;;4967407;28;20396;-72
2022/01/15 03:26:00;;;;;;;6.55;3.72;;;5.30;98.60;;;;;;4959001;28;20152;-73
2022/01/15 03:28:26;;;;;;;5.63;3.83;;;5.30;98.50;;;;;;4963646;28;20122;-72
2022/01/15 03:30:51;;;;;;;7.93;3.70;;;5.30;98.70;;;;;;4971688;28;20077;-71
2022/01/15 03:33:19;;;;;;;6.50;3.73;;;5.40;98.90;;;;;;4961364;28;20027;-72
2022/01/15 03:35:45;;;;;;;7.07;3.30;;;5.40;98.90;;;;;;4968457;28;20048;-72
2022/01/15 03:38:10;;;;;;;5.53;3.37;;;5.40;98.90;;;;;;4964762;28;20022;-74
2022/01/15 03:40:36;;;;;;;5.33;3.63;;;5.40;98.90;;;;;;4971220;28;20026;-73
2022/01/15 03:43:04;;;;;;;5.03;3.10;;;5.40;98.90;;;;;;4964110;28;20888;-72
2022/01/15 03:45:31;;;;;;;6.13;3.20;;;5.40;98.60;;;;;;4968247;28;20118;-73
2022/01/15 03:47:58;;;;;;;5.80;3.53;;;5.40;98.60;;;;;;4969796;28;20037;-72
2022/01/15 03:50:26;;;;;;;5.70;3.42;;;5.50;98.40;;;;;;4966185;28;20453;-72
2022/01/15 03:52:53;;;;;;;5.25;3.17;;;5.50;98.00;;;;;;4966742;28;20034;-72
2022/01/15 03:55:20;;;;;;;5.35;3.05;;;5.50;97.70;;;;;;4962141;28;20202;-72
2022/01/15 03:57:46;;;;;;;;;;;5.50;97.70;;;;;;4963311;28;20038;-73
2022/01/15 04:00:18;;;;;;;6.50;3.05;;;5.50;97.40;;;;;;4960329;28;19910;-76
2022/01/15 04:02:46;;;;;;;6.30;3.00;;;5.50;97.20;;;;;;4968225;28;20050;-72
2022/01/15 04:05:12;;;;;;;6.25;2.95;;;5.40;96.40;;;;;;4964520;28;20143;-73
2022/01/15 04:07:39;;;;;;;5.03;3.00;;;5.40;96.50;;;;;;4969387;28;20404;-75
2022/01/15 04:10:07;;;;;;;5.70;2.90;;;5.40;96.40;;;;;;4968846;28;20021;-73
2022/01/15 04:12:33;;;;;;;4.35;2.58;;;5.40;96.30;;;;;;4966323;28;20473;-72
2022/01/15 04:14:59;;;;;;;4.20;2.43;;;5.40;96.10;;;;;;4966444;28;20036;-72
2022/01/15 04:17:26;;;;;;;5.40;2.83;;;5.40;95.90;;;;;;4971820;28;20034;-74
2022/01/15 04:19:52;;;;;;;7.30;2.50;;;5.40;95.90;;;;;;4969302;28;20026;-77
2022/01/15 04:22:18;;;;;;;5.35;3.35;;;5.40;95.60;;;;;;4965380;28;20046;-72
2022/01/15 04:24:46;;;;;;;4.83;2.80;;;5.40;95.50;;;;;;4969171;28;20090;-71
2022/01/15 04:27:12;;;;;;;5.10;2.85;;;5.40;95.10;;;;;;4968527;28;20562;-73
2022/01/15 04:29:37;;;;;;;4.80;2.73;;;5.40;95.00;;;;;;4967261;28;20046;-75
2022/01/15 04:32:04;;;;;;;5.50;3.03;;;5.40;95.10;;;;;;4966400;28;20018;-73
2022/01/15 04:34:30;;;;;;;6.47;2.78;;;5.40;95.10;;;;;;4972578;28;20042;-72
2022/01/15 04:37:09;;;;;;;4.18;3.08;;;5.50;95.10;;;;;;4964483;28;20705;-74
2022/01/15 04:39:37;;;;;;;4.82;2.92;;;5.50;95.30;;;;;;4968046;28;20662;-73
2022/01/15 04:42:03;;;;;;;6.18;2.95;;;5.40;95.70;;;;;;4959969;28;20109;-72
2022/01/15 04:44:30;;;;;;;6.63;3.05;;;5.50;96.00;;;;;;4967717;28;20027;-73
2022/01/15 04:46:55;;;;;;;7.15;2.92;;;5.40;96.10;;;;;;4970693;28;20030;-73
2022/01/15 04:49:22;;;;;;;5.60;2.93;;;5.50;96.00;;;;;;4970464;28;20030;-73
2022/01/15 04:51:48;;;;;;;9.43;3.47;;;5.40;96.10;;;;;;4971458;28;20477;-72
2022/01/15 04:54:13;;;;;;;4.70;2.83;;;5.50;96.10;;;;;;4969559;28;20118;-75
2022/01/15 04:56:39;;;;;;;5.27;3.13;;;5.50;95.90;;;;;;4968302;28;20026;-72
2022/01/15 04:59:06;;;;;;;6.53;2.93;;;5.50;96.10;;;;;;4966771;28;20073;-75
2022/01/15 05:01:31;;;;;;;3.88;2.75;;;5.50;96.20;;;;;;4967744;28;20101;-72
2022/01/15 05:03:58;;;;;;;5.73;3.17;;;5.40;96.50;;;;;;4969315;28;20484;-72
2022/01/15 05:06:24;;;;;;;6.80;3.60;;;5.50;96.60;;;;;;4965275;28;20770;-72
2022/01/15 05:09:01;;;;;;;5.63;3.13;;;5.50;96.60;;;;;;4967663;28;20035;-73
2022/01/15 05:11:31;;;;;;;6.10;3.40;;;5.50;96.60;;;;;;4966801;28;20587;-72
2022/01/15 05:13:57;;;;;;;5.47;3.08;;;5.40;96.70;;;;;;4970017;28;20027;-72
2022/01/15 05:16:23;;;;;;;6.93;4.28;;;5.40;96.80;;;;;;4970675;28;20778;-74
2022/01/15 05:18:49;;;;;;;6.20;3.47;;;5.40;96.80;;;;;;4976174;28;20057;-75
2022/01/15 05:21:15;;;;;;;7.63;3.60;;;5.40;97.00;;;;;;4964283;28;20026;-76
2022/01/15 05:23:41;;;;;;;6.30;4.30;;;5.40;97.10;;;;;;4975723;28;20069;-72
2022/01/15 05:26:09;;;;;;;7.55;3.85;;;5.30;97.20;;;;;;4967536;28;20144;-74
2022/01/15 05:28:36;;;;;;;7.68;4.13;;;5.30;97.30;;;;;;4971878;28;20114;-74
2022/01/15 05:31:01;;;;;;;7.78;3.80;;;5.30;97.40;;;;;;4968251;28;20019;-72
2022/01/15 05:33:27;;;;;;;7.83;4.30;;;5.30;97.50;;;;;;4972079;28;20037;-72
2022/01/15 05:35:55;;;;;;;7.07;3.83;;;5.30;97.50;;;;;;4973603;28;20033;-72
2022/01/15 05:38:21;;;;;;;6.90;3.75;;;5.30;97.30;;;;;;4967121;28;20479;-73
2022/01/15 05:40:48;;;;;;;8.63;4.03;;;5.30;97.20;;;;;;4972275;28;20120;-73
2022/01/15 05:43:14;;;;;;;5.72;3.30;;;5.30;97.30;;;;;;4967933;28;20392;-71
2022/01/15 05:45:39;;;;;;;8.17;4.17;;;5.30;97.30;;;;;;4969207;28;20033;-71
2022/01/15 05:48:05;;;;;;;7.67;3.63;;;5.30;97.10;;;;;;4963656;28;20353;-72
2022/01/15 05:50:31;;;;;;;7.33;3.67;;;5.20;97.00;;;;;;4970388;28;20023;-72
2022/01/15 05:52:58;;;;;;;7.00;3.10;;;5.20;97.10;;;;;;4975762;28;20356;-73
2022/01/15 05:55:24;;;;;;;6.32;3.40;;;5.20;96.50;;;;;;4966441;28;20588;-73
2022/01/15 05:57:50;;;;;;;3.93;2.53;;;5.20;96.60;;;;;;4968726;28;20484;-73
2022/01/15 06:00:16;;;;;;;5.30;3.73;;;5.20;96.50;;;;;;4961027;28;20301;-72
2022/01/15 06:02:42;;;;;;;7.22;3.33;;;5.30;96.30;;;;;;4968969;28;20354;-72
2022/01/15 06:05:09;;;;;;;6.13;3.03;;;5.30;96.10;;;;;;4963509;28;20565;-72
2022/01/15 06:07:36;;;;;;;8.10;4.25;;;5.30;96.00;;;;;;4972428;28;20078;-72
2022/01/15 06:10:03;;;;;;;6.32;3.08;;;5.30;96.10;;;;;;4967378;28;20018;-73
2022/01/15 06:12:31;;;;;;;7.03;2.85;;;5.30;96.00;;;;;;4968504;28;20049;-73
2022/01/15 06:14:58;;;;;;;4.43;2.90;;;5.30;95.40;;;;;;4965424;28;20077;-72
2022/01/15 06:17:24;;;;;;;6.40;3.50;;;5.30;95.60;;;;;;4963934;28;20589;-71
2022/01/15 06:19:51;;;;;;;7.03;3.50;;;5.30;95.60;;;;;;4966719;28;20022;-78
2022/01/15 06:22:17;;;;;;;6.72;3.45;;;5.30;95.50;;;;;;4962458;28;20084;-73
2022/01/15 06:24:43;;;;;;;5.67;3.23;;;5.30;95.40;;;;;;4966774;28;20996;-72
2022/01/15 06:27:11;;;;;;;5.60;3.25;;;5.30;95.40;;;;;;4965965;28;20042;-72
2022/01/15 06:29:38;;;;;;;5.38;3.20;;;5.20;95.20;;;;;;4973881;28;20026;-72
2022/01/15 06:32:04;;;;;;;6.10;3.10;;;5.30;95.40;;;;;;4969397;28;20018;-73
2022/01/15 06:34:31;;;;;;;5.78;3.20;;;5.30;95.60;;;;;;4968425;28;20740;-73
2022/01/15 06:36:57;;;;;;;7.07;3.15;;;5.20;95.70;;;;;;4965246;28;20042;-73
2022/01/15 06:39:23;;;;;;;5.87;3.03;;;5.30;95.80;;;;;;4964417;28;20037;-74
2022/01/15 06:41:49;;;;;;;5.83;3.70;;;5.30;95.70;;;;;;4970717;28;20049;-73
2022/01/15 06:44:15;;;;;;;6.30;3.60;;;5.30;95.70;;;;;;4967880;28;20090;-73
2022/01/15 06:46:41;;;;;;;6.77;3.60;;;5.30;95.70;;;;;;4970060;28;20047;-73
2022/01/15 06:49:06;;;;;;;6.93;3.60;;;5.40;95.60;;;;;;4969065;28;20065;-72
2022/01/15 06:51:32;;;;;;;7.30;3.73;;;5.40;95.50;;;;;;4963670;28;20061;-73
2022/01/15 06:54:01;;;;;;;7.10;3.57;;;5.40;95.50;;;;;;4968165;28;20114;-73
2022/01/15 06:56:27;;;;;;;7.50;3.60;;;5.40;95.40;;;;;;4960352;28;20057;-73
2022/01/15 06:58:53;;;;;;;6.13;3.50;;;5.40;95.40;;;;;;4971120;28;20500;-73
2022/01/15 07:01:19;;;;;;;7.33;3.93;;;5.40;95.30;;;;;;4961918;28;20033;-74
2022/01/15 07:03:44;;;;;;;4.63;3.10;;;5.40;95.30;;;;;;4965257;28;20479;-73
2022/01/15 07:06:10;;;;;;;6.63;3.73;;;5.30;95.30;;;;;;4964424;28;20153;-74
2022/01/15 07:08:36;;;;;;;8.63;3.50;;;5.30;95.30;;;;;;4971302;28;20081;-74
2022/01/15 07:11:02;;;;;;;6.07;3.50;;;5.30;95.40;;;;;;4971260;28;20030;-74
2022/01/15 07:13:30;;;;;;;5.90;3.03;;;5.30;95.30;;;;;;4963759;28;20109;-74
2022/01/15 07:15:56;;;;;;;5.28;3.38;;;5.40;95.10;;;;;;4971757;28;20026;-73
2022/01/15 07:18:22;;;;;;;5.88;3.20;;;5.30;95.00;;;;;;4960821;28;20618;-75
2022/01/15 07:20:51;;;;;;;4.53;2.63;;;5.30;95.00;;;;;;4970088;28;20142;-72
2022/01/15 07:23:18;;;;;;;6.15;2.90;;;5.40;95.00;;;;;;4965268;28;20114;-73
2022/01/15 07:25:45;;;;;;;6.93;3.38;;;5.40;94.90;;;;;;4965941;28;20601;-73
2022/01/15 07:28:12;;;;;;;5.90;3.72;;;5.40;94.90;;;;;;4963064;28;20728;-72
2022/01/15 07:30:40;;;;;;;7.43;3.58;;;5.40;94.80;;;;;;4966993;28;20030;-76
2022/01/15 07:33:12;;;;;;;5.35;3.33;;;5.40;94.90;;;;;;4970380;28;20019;-72
2022/01/15 07:35:38;;;;;;;6.47;3.63;;;5.40;95.00;;;;;;4967397;28;20034;-73
2022/01/15 07:38:04;;;;;;;7.03;3.47;;;5.40;95.20;;;;;;4966276;28;20049;-73
2022/01/15 07:40:30;;;;;;;7.57;4.00;;;5.40;95.20;;;;;;4959848;28;20031;-71
2022/01/15 07:42:56;;;;;;;7.43;3.60;;;5.40;95.90;;;;;;4963318;28;20019;-70
2022/01/15 07:45:21;;;;;;;7.63;4.10;;;5.50;95.60;;;;;;4963452;28;20022;-71
2022/01/15 07:47:47;;;;;;;6.53;3.93;;;5.50;95.00;;;;;;4965028;28;20031;-71
2022/01/15 07:50:23;;;;;;;7.10;3.87;;;5.50;94.90;;;;;;4961692;28;20037;-71
2022/01/15 07:52:56;;;;;;;6.75;3.55;;;5.60;94.70;;;;;;4965930;28;20033;-71
2022/01/15 07:55:23;;;;;;;11.55;3.83;;;5.60;94.40;;;;;;4966283;28;20065;-71
2022/01/15 07:57:49;;;;;;;12.30;4.13;;;5.60;94.30;;;;;;4965143;28;20057;-70
2022/01/15 08:00:16;;;;;;;14.05;4.28;;;5.60;94.20;;;;;;4963944;28;20598;-72
2022/01/15 08:02:42;;;;;;;11.13;3.50;;;5.70;94.20;;;;;;4965992;28;20038;-71
2022/01/15 08:05:10;;;;;;;26.88;4.65;;;5.70;94.00;;;;;;4967581;28;20022;-71
2022/01/15 08:07:35;;;;;;;14.50;4.28;;;5.80;93.60;;;;;;4957076;28;20495;-71
2022/01/15 08:10:04;;;;;;;15.00;4.10;;;5.90;93.40;;;;;;4965992;28;20029;-71
2022/01/15 08:12:30;;;;;;;65.55;6.75;;;5.90;92.70;;;;;;4962344;28;20312;-71
2022/01/15 08:14:56;;;;;;;19.80;5.55;;;5.90;92.30;;;;;;4970827;28;20059;-71
2022/01/15 08:17:22;;;;;;;9.00;4.05;;;6.00;92.40;;;;;;4967315;28;20073;-71
2022/01/15 08:19:48;;;;;;;6.73;4.20;;;6.00;92.30;;;;;;4975642;28;20026;-72
2022/01/15 08:22:13;;;;;;;7.20;4.10;;;6.00;92.40;;;;;;4966313;28;20026;-70
2022/01/15 08:24:39;;;;;;;62.53;7.90;;;6.00;92.70;;;;;;4966973;28;20780;-70
2022/01/15 08:27:05;;;;;;;24.00;5.10;;;6.00;92.80;;;;;;4968051;28;20025;-72
2022/01/15 08:29:30;;;;;;;11.67;3.80;;;6.00;92.60;;;;;;4968063;28;20050;-71
2022/01/15 08:31:56;;;;;;;15.03;5.07;;;6.10;92.90;;;;;;4971029;28;20026;-69
2022/01/15 08:34:23;;;;;;;11.53;4.50;;;6.10;92.60;;;;;;4967876;28;20712;-71
2022/01/15 08:36:49;;;;;;;8.77;4.40;;;6.10;92.70;;;;;;4967399;28;20747;-71
2022/01/15 08:39:15;;;;;;;8.95;4.45;;;6.20;92.60;;;;;;4962128;28;21392;-71
2022/01/15 08:41:43;;;;;;;15.13;5.27;;;6.20;92.50;;;;;;4968659;28;20042;-71
2022/01/15 08:44:09;;;;;;;12.45;5.25;;;6.20;92.40;;;;;;4972040;28;20041;-71
2022/01/15 08:46:35;;;;;;;11.77;5.00;;;6.20;92.30;;;;;;4967249;28;20712;-71
2022/01/15 08:49:00;;;;;;;14.57;4.43;;;6.20;92.10;;;;;;4968735;28;20077;-71
2022/01/15 08:51:26;;;;;;;8.00;3.97;;;6.20;91.70;;;;;;4964741;28;20038;-71
2022/01/15 08:53:52;;;;;;;8.63;4.13;;;6.30;91.70;;;;;;4964926;28;20023;-69
2022/01/15 08:56:17;;;;;;;37.80;6.63;;;6.30;91.80;;;;;;4962662;28;20045;-73
2022/01/15 08:58:43;;;;;;;16.13;5.77;;;6.40;91.40;;;;;;4965638;28;20526;-76
2022/01/15 09:01:13;;;;;;;7.17;3.63;;;6.40;91.10;;;;;;4967093;28;20037;-71
2022/01/15 09:03:41;;;;;;;9.88;3.85;;;6.40;90.90;;;;;;4965761;28;20663;-69
2022/01/15 09:06:07;;;;;;;9.15;3.47;;;6.50;90.50;;;;;;4973049;28;20170;-72
2022/01/15 09:08:42;;;;;;;9.65;4.03;;;6.60;90.50;;;;;;4964318;28;20678;-73
2022/01/15 09:11:08;;;;;;;7.28;3.47;;;6.70;90.10;;;;;;4966142;28;20022;-70
2022/01/15 09:13:34;;;;;;;8.30;3.67;;;6.70;90.00;;;;;;4962142;28;20018;-71
2022/01/15 09:15:59;;;;;;;6.67;3.60;;;6.70;89.70;;;;;;4967554;28;20023;-69
2022/01/15 09:18:26;;;;;;;10.13;4.20;;;6.70;89.80;;;;;;4964992;28;20038;-69
2022/01/15 09:20:52;;;;;;;6.60;3.58;;;6.70;89.70;;;;;;4970174;28;20512;-69
2022/01/15 09:23:17;;;;;;;6.83;3.40;;;6.60;89.60;;;;;;4965059;28;20038;-70
2022/01/15 09:25:45;;;;;;;7.13;3.73;;;6.60;89.50;;;;;;4965151;28;20054;-70
2022/01/15 09:30:55;;;;;;;7.93;4.03;;;6.70;89.60;;;;;;4968943;28;20801;-70
2022/01/15 09:33:21;;;;;;;8.67;3.83;;;6.70;89.00;;;;;;4964293;28;20090;-70
2022/01/15 09:35:46;;;;;;;8.13;3.90;;;6.80;89.10;;;;;;4961727;28;20699;-69
2022/01/15 09:38:16;;;;;;;4.87;3.43;;;6.80;88.70;;;;;;4969765;28;20111;-70
2022/01/15 09:40:43;;;;;;;4.97;2.88;;;6.90;88.00;;;;;;4972175;28;20033;-70
2022/01/15 09:43:09;;;;;;;5.95;3.08;;;7.00;87.10;;;;;;4969062;28;20029;-69
2022/01/15 09:45:36;;;;;;;15.68;4.43;;;7.00;86.90;;;;;;4965383;28;20054;-69
2022/01/15 09:48:04;;;;;;;5.18;3.45;;;7.00;85.30;;;;;;4970434;28;20026;-69
2022/01/15 09:50:32;;;;;;;18.08;3.58;;;7.10;85.40;;;;;;4963947;28;20103;-70
2022/01/15 09:52:58;;;;;;;106.93;11.60;;;7.20;83.60;;;;;;4972652;28;20038;-69
2022/01/15 09:55:25;;;;;;;11.25;2.85;;;7.30;83.30;;;;;;4968095;28;20022;-70
2022/01/15 09:57:53;;;;;;;7.50;3.10;;;7.30;83.70;;;;;;4970140;28;20500;-69
2022/01/15 10:00:22;;;;;;;3.72;2.30;;;7.30;83.50;;;;;;4965836;28;20037;-69
2022/01/15 10:02:49;;;;;;;6.85;2.55;;;7.30;82.70;;;;;;4974780;28;20019;-69
2022/01/15 10:05:16;;;;;;;34.70;5.38;;;7.90;83.00;;;;;;4970949;28;20030;-69
2022/01/15 10:07:58;;;;;;;8.80;3.10;;;7.40;82.90;;;;;;4971530;28;20070;-69
2022/01/15 10:10:25;;;;;;;4.63;2.42;;;7.40;82.20;;;;;;4964232;28;20209;-70
2022/01/15 10:12:51;;;;;;;6.15;2.28;;;7.50;81.90;;;;;;4969134;28;20133;-70
2022/01/15 10:15:17;;;;;;;8.32;2.55;;;7.50;81.10;;;;;;4962661;28;21033;-72
2022/01/15 10:17:43;;;;;;;4.60;3.80;;;7.40;82.50;;;;;;4969260;28;20030;-70
2022/01/15 10:20:32;;;;;;;7.57;3.57;;;7.50;81.00;;;;;;4973139;28;20026;-73
2022/01/15 10:23:00;;;;;;;6.30;2.53;;;7.60;79.20;;;;;;4966050;28;20103;-70
2022/01/15 10:25:25;;;;;;;6.32;2.20;;;7.60;79.00;;;;;;4965938;28;20101;-70
2022/01/15 10:27:54;;;;;;;4.13;2.73;;;7.60;79.50;;;;;;4974491;28;20719;-69
2022/01/15 10:30:23;;;;;;;4.38;2.50;;;7.50;79.30;;;;;;4966399;28;20031;-70
2022/01/15 10:32:54;;;;;;;5.65;2.75;;;7.50;80.00;;;;;;4969808;28;20042;-70
2022/01/15 10:35:22;;;;;;;8.10;3.15;;;7.40;80.10;;;;;;4965399;28;20023;-69
2022/01/15 10:37:54;;;;;;;4.50;2.42;;;7.40;80.30;;;;;;4969050;28;20049;-70
2022/01/15 10:40:27;;;;;;;4.82;2.53;;;7.40;79.50;;;;;;4969663;28;20029;-70
2022/01/15 10:42:58;;;;;;;4.50;2.47;;;7.40;79.80;;;;;;4967605;28;20608;-69
2022/01/15 10:45:26;;;;;;;4.70;2.97;;;7.40;80.30;;;;;;4966042;28;20034;-71
2022/01/15 10:47:55;;;;;;;7.93;2.72;;;7.40;80.60;;;;;;4973652;28;20069;-70
2022/01/15 10:50:26;;;;;;;4.63;2.45;;;7.50;80.20;;;;;;4969436;28;20024;-70
2022/01/15 10:52:53;;;;;;;5.95;2.60;;;7.60;79.60;;;;;;4968801;28;20110;-70
2022/01/15 10:55:29;;;;;;;4.80;2.80;;;7.70;78.80;;;;;;4962818;28;20628;-70
2022/01/15 10:57:59;;;;;;;8.60;2.75;;;7.70;78.60;;;;;;4967533;28;20092;-70
2022/01/15 11:00:38;;;;;;;5.93;3.08;;;7.80;77.90;;;;;;4967169;28;20023;-70
2022/01/15 11:03:12;;;;;;;4.47;2.78;;;8.00;77.80;;;;;;4970171;28;20027;-70
2022/01/15 11:05:43;;;;;;;5.57;3.22;;;8.10;76.00;;;;;;4962459;28;20022;-70
2022/01/15 11:08:17;;;;;;;7.60;3.38;;;8.30;76.10;;;;;;4970601;28;20031;-70
2022/01/15 11:11:03;;;;;;;8.07;2.95;;;8.50;74.80;;;;;;4993272;28;20037;-70
2022/01/15 11:13:37;;;;;;;10.93;2.90;;;8.70;72.80;;;;;;4961737;28;20373;-71
2022/01/15 11:16:05;;;;;;;6.05;3.10;;;8.80;72.70;;;;;;4967658;28;20022;-70
2022/01/15 11:18:34;;;;;;;6.63;2.65;;;9.00;73.00;;;;;;4971690;28;20026;-70
2022/01/15 11:21:03;;;;;;;5.63;2.75;;;9.20;70.90;;;;;;4963463;28;20033;-70
2022/01/15 11:23:30;;;;;;;8.07;3.33;;;9.40;69.30;;;;;;4964673;28;20041;-70
2022/01/15 11:25:59;;;;;;;4.18;2.60;;;9.40;68.20;;;;;;4968177;28;20023;-71
2022/01/15 11:28:27;;;;;;;4.85;2.65;;;9.40;69.00;;;;;;4965132;28;20106;-71
2022/01/15 11:30:56;;;;;;;7.78;3.50;;;9.50;67.60;;;;;;4961199;28;20078;-70
2022/01/15 11:33:28;;;;;;;8.35;2.97;;;9.50;67.80;;;;;;4972873;28;20021;-70
2022/01/15 11:35:54;;;;;;;5.43;2.90;;;9.70;68.10;;;;;;4964487;28;20105;-70
2022/01/15 11:38:41;;;;;;;5.13;2.80;;;9.90;67.50;;;;;;4968147;28;20090;-70
2022/01/15 11:41:26;;;;;;;4.60;2.60;;;10.40;65.20;;;;;;4967325;28;20030;-69
2022/01/15 11:43:58;;;;;;;5.07;2.85;;;10.50;64.00;;;;;;4963267;28;20995;-70
2022/01/15 11:46:31;;;;;;;5.05;3.10;;;10.70;62.90;;;;;;4963669;28;20069;-71
2022/01/15 11:49:34;;;;;;;5.28;2.97;;;10.80;61.90;;;;;;4962999;28;20757;-70
2022/01/15 11:52:05;;;;;;;4.38;2.65;;;10.90;61.10;;;;;;4971285;28;20037;-70
2022/01/15 11:54:32;;;;;;;6.88;2.70;;;10.80;60.10;;;;;;4967616;28;20035;-71
2022/01/15 11:57:00;;;;;;;5.30;2.08;;;10.90;60.00;;;;;;4966853;28;20026;-70
2022/01/15 11:59:27;;;;;;;5.90;2.97;;;11.00;58.70;;;;;;4975044;28;20042;-74
2022/01/15 12:02:05;;;;;;;5.70;2.47;;;11.00;64.10;;;;;;4963649;28;20027;-75
2022/01/15 12:04:38;;;;;;;4.22;2.35;;;11.30;64.50;;;;;;4967704;28;20046;-75
2022/01/15 12:07:07;;;;;;;3.55;2.20;;;11.60;63.10;;;;;;4964753;28;20038;-74
2022/01/15 12:09:42;;;;;;;2.78;2.00;;;11.30;59.80;;;;;;4973055;28;20019;-72
2022/01/15 12:12:38;;;;;;;3.28;2.00;;;11.10;57.80;;;;;;4967697;28;20022;-72
2022/01/15 12:15:06;;;;;;;3.70;2.15;;;10.50;57.30;;;;;;4965146;28;20022;-72
2022/01/15 12:17:48;;;;;;;3.25;1.85;;;10.30;58.70;;;;;;4967627;28;20066;-72
2022/01/15 12:20:21;;;;;;;5.88;2.63;;;10.20;60.20;;;;;;4968762;28;20034;-72
2022/01/15 12:22:52;;;;;;;6.38;1.95;;;9.90;61.20;;;;;;4970902;28;20035;-72
2022/01/15 12:25:18;;;;;;;3.35;2.22;;;9.80;61.40;;;;;;4969720;28;20030;-71
2022/01/15 12:27:45;;;;;;;3.83;2.30;;;9.60;62.60;;;;;;4971602;28;20026;-71
2022/01/15 12:30:32;;;;;;;4.40;2.20;;;9.50;63.20;;;;;;4969010;28;20022;-72
2022/01/15 12:33:02;;;;;;;3.72;2.20;;;9.60;63.40;;;;;;4970129;28;20723;-72
2022/01/15 12:35:34;;;;;;;3.30;2.20;;;9.60;62.70;;;;;;4973864;28;20079;-72
2022/01/15 12:38:21;;;;;;;5.70;2.28;;;9.70;62.10;;;;;;4967426;28;20062;-71
2022/01/15 12:40:53;;;;;;;3.65;2.38;;;9.70;61.80;;;;;;4972779;28;20464;-72
2022/01/15 12:43:28;;;;;;;4.00;2.20;;;9.70;61.80;;;;;;4969905;28;20089;-71
2022/01/15 12:46:00;;;;;;;4.47;2.10;;;9.70;61.80;;;;;;4973015;28;20037;-71
2022/01/15 12:48:28;;;;;;;3.33;2.35;;;9.60;62.30;;;;;;4960379;28;20043;-75
2022/01/15 12:50:58;;;;;;;4.80;2.47;;;9.40;62.50;;;;;;4965185;28;20401;-71
2022/01/15 12:53:26;;;;;;;6.53;2.28;;;9.50;64.40;;;;;;4960245;28;20403;-70
2022/01/15 12:55:53;;;;;;;3.25;2.20;;;9.60;63.20;;;;;;4971827;28;20502;-71
2022/01/15 12:58:22;;;;;;;6.30;2.50;;;9.60;63.20;;;;;;4969288;28;20110;-71
2022/01/15 13:00:48;;;;;;;3.33;2.22;;;9.60;62.90;;;;;;4968652;28;20077;-71
2022/01/15 13:03:17;;;;;;;;;;;9.50;62.90;;;;;;4962689;28;20037;-70
2022/01/15 13:05:50;;;;;;;4.28;2.55;;;9.40;63.50;;;;;;4967523;28;20012;-71
2022/01/15 13:08:17;;;;;;;4.35;2.40;;;9.40;63.70;;;;;;4961448;28;20027;-70
2022/01/15 13:13:27;;;;;;;3.97;2.03;;;9.30;63.80;;;;;;4965516;28;20027;-71
2022/01/15 13:16:05;;;;;;;4.57;2.53;;;9.30;63.70;;;;;;4971243;28;20025;-71
2022/01/15 13:18:36;;;;;;;3.65;2.30;;;9.10;64.50;;;;;;4969331;28;20579;-70
2022/01/15 13:21:08;;;;;;;4.43;2.30;;;9.00;64.20;;;;;;4963976;28;20019;-71
2022/01/15 13:23:40;;;;;;;4.57;2.38;;;9.00;64.30;;;;;;4965022;28;20038;-72
2022/01/15 13:26:08;;;;;;;3.85;2.10;;;8.90;65.20;;;;;;4963711;28;20084;-71
2022/01/15 13:28:36;;;;;;;3.80;2.30;;;8.80;65.10;;;;;;4970951;28;20027;-72
2022/01/15 13:31:02;;;;;;;5.03;2.55;;;8.80;65.70;;;;;;4964197;28;20162;-71